createdAt,value
2023-04-12T00:01:51.340Z,6.54
2023-04-12T00:04:22.475Z,6.73
2023-04-12T00:06:57.606Z,6.70
2023-04-12T00:09:30.306Z,6.62
2023-04-12T00:11:59.657Z,6.71
2023-04-12T00:14:28.827Z,6.72
2023-04-12T00:16:58.504Z,6.68
2023-04-12T00:19:30.745Z,6.63
2023-04-12T00:22:00.262Z,6.56
2023-04-12T00:24:35.410Z,6.55
2023-04-12T00:27:05.584Z,6.50
2023-04-12T00:29:40.227Z,6.42
2023-04-12T00:32:09.292Z,6.33
2023-04-12T00:34:43.437Z,6.10
2023-04-12T00:37:12.545Z,6.10
2023-04-12T00:39:44.004Z,6.13
2023-04-12T00:42:13.812Z,6.18
2023-04-12T00:44:43.060Z,6.18
2023-04-12T00:47:17.496Z,6.09
2023-04-12T00:49:51.785Z,6.09
2023-04-12T00:52:27.070Z,6.02
2023-04-12T00:54:58.220Z,5.99
2023-04-12T00:57:27.907Z,5.87
2023-04-12T01:00:04.465Z,5.85
2023-04-12T01:02:34.443Z,5.72
2023-04-12T01:05:05.069Z,5.60
2023-04-12T01:07:44.982Z,5.45
2023-04-12T01:10:34.084Z,5.33
2023-04-12T01:13:12.723Z,5.27
2023-04-12T01:15:51.181Z,5.31
2023-04-12T01:18:29.978Z,5.36
2023-04-12T01:21:05.329Z,5.32
2023-04-12T01:23:53.810Z,5.40
2023-04-12T01:26:36.788Z,5.31
2023-04-12T01:29:16.165Z,5.21
2023-04-12T01:31:52.501Z,5.17
2023-04-12T01:34:23.939Z,4.99
2023-04-12T01:36:54.788Z,5.13
2023-04-12T01:39:29.211Z,5.12
2023-04-12T01:41:58.493Z,5.10
2023-04-12T01:44:29.535Z,5.08
2023-04-12T01:47:04.233Z,4.90
2023-04-12T01:49:41.764Z,5.00
2023-04-12T01:52:16.470Z,4.94
2023-04-12T01:54:51.036Z,4.84
2023-04-12T01:57:22.642Z,4.72
2023-04-12T02:00:02.003Z,4.59
2023-04-12T02:02:32.792Z,4.68
2023-04-12T02:05:03.528Z,4.70
2023-04-12T02:07:33.298Z,4.69
2023-04-12T02:10:08.690Z,4.68
2023-04-12T02:15:15.933Z,4.59
2023-04-12T02:17:45.931Z,4.68
2023-04-12T02:20:22.718Z,4.61
2023-04-12T02:22:53.922Z,4.61
2023-04-12T02:25:23.644Z,4.42
2023-04-12T02:27:52.757Z,4.65
2023-04-12T02:30:24.669Z,4.66
2023-04-12T02:32:55.968Z,4.72
2023-04-12T02:35:34.326Z,4.77
2023-04-12T02:38:09.798Z,4.73
2023-04-12T02:40:42.557Z,4.81
2023-04-12T02:43:16.653Z,4.59
2023-04-12T02:46:02.025Z,4.75
2023-04-12T02:48:34.700Z,4.74
2023-04-12T02:53:50.454Z,4.66
2023-04-12T02:56:29.591Z,4.72
2023-04-12T02:59:06.749Z,4.33
2023-04-12T03:02:07.838Z,4.63
2023-04-12T03:07:23.632Z,4.61
2023-04-12T03:09:55.244Z,4.57
2023-04-12T03:12:27.399Z,4.70
2023-04-12T03:15:18.358Z,4.72
2023-04-12T03:18:01.111Z,4.66
2023-04-12T03:20:34.820Z,4.51
2023-04-12T03:23:07.336Z,4.42
2023-04-12T03:25:40.696Z,4.83
2023-04-12T03:28:33.674Z,4.90
2023-04-12T03:31:05.126Z,5.04
2023-04-12T03:33:50.771Z,5.13
2023-04-12T03:36:26.845Z,5.25
2023-04-12T03:39:11.015Z,5.39
2023-04-12T03:41:41.214Z,5.45
2023-04-12T03:44:10.670Z,5.53
2023-04-12T03:46:40.169Z,5.65
2023-04-12T03:49:14.608Z,5.74
2023-04-12T03:51:52.128Z,5.71
2023-04-12T03:54:26.284Z,6.00
2023-04-12T03:57:01.707Z,6.03
2023-04-12T03:59:43.826Z,6.10
2023-04-12T04:02:13.450Z,6.44
2023-04-12T04:04:55.965Z,6.64
2023-04-12T04:07:31.471Z,6.90
2023-04-12T04:10:01.363Z,7.14
2023-04-12T04:12:35.380Z,7.25
2023-04-12T04:15:05.218Z,7.41
2023-04-12T04:17:36.386Z,7.40
2023-04-12T04:20:12.162Z,7.62
2023-04-12T04:22:48.560Z,7.69
2023-04-12T04:25:19.467Z,7.81
2023-04-12T04:27:53.994Z,7.90
2023-04-12T04:30:26.281Z,8.02
2023-04-12T04:32:55.618Z,8.12
2023-04-12T04:35:28.977Z,8.34
2023-04-12T04:38:05.351Z,8.32
2023-04-12T04:40:34.627Z,8.33
2023-04-12T04:43:13.748Z,8.46
2023-04-12T04:45:46.029Z,8.60
2023-04-12T04:48:16.348Z,8.69
2023-04-12T04:50:47.447Z,8.51
2023-04-12T04:53:22.105Z,8.78
2023-04-12T04:56:00.945Z,8.83
2023-04-12T04:58:35.968Z,8.86
2023-04-12T05:01:05.557Z,8.95
2023-04-12T05:03:37.665Z,8.91
2023-04-12T05:06:10.469Z,9.14
2023-04-12T05:08:45.862Z,9.04
2023-04-12T05:11:19.408Z,9.48
2023-04-12T05:13:49.465Z,9.49
2023-04-12T05:16:18.742Z,9.69
2023-04-12T05:21:26.052Z,9.77
2023-04-12T05:26:30.644Z,9.85
2023-04-12T05:29:01.381Z,9.97
2023-04-12T05:34:19.042Z,10.14
2023-04-12T05:36:59.233Z,10.18
2023-04-12T05:39:32.555Z,10.27
2023-04-12T05:42:01.876Z,10.04
2023-04-12T05:44:31.278Z,10.44
2023-04-12T05:49:41.379Z,10.64
2023-04-12T05:52:14.307Z,10.73
2023-04-12T05:54:44.635Z,10.86
2023-04-12T05:57:23.452Z,10.95
2023-04-12T05:59:57.700Z,10.81
2023-04-12T06:02:27.136Z,11.04
2023-04-12T06:04:58.256Z,11.18
2023-04-12T06:10:27.878Z,11.54
2023-04-12T06:12:57.009Z,11.57
2023-04-12T06:15:38.261Z,11.64
2023-04-12T06:18:09.438Z,11.66
2023-04-12T06:20:41.668Z,11.81
2023-04-12T06:23:21.756Z,11.88
2023-04-12T06:25:57.627Z,11.97
2023-04-12T06:28:26.988Z,12.02
2023-04-12T06:31:01.224Z,12.13
2023-04-12T06:33:36.406Z,12.31
2023-04-12T06:36:16.223Z,12.40
2023-04-12T06:41:25.473Z,12.55
2023-04-12T06:44:07.249Z,12.68
2023-04-12T06:49:11.183Z,12.90
2023-04-12T06:51:40.695Z,12.98
2023-04-12T06:54:12.676Z,13.07
2023-04-12T06:56:41.917Z,13.14
2023-04-12T06:59:10.999Z,13.21
2023-04-12T07:01:45.453Z,13.16
2023-04-12T07:04:16.530Z,13.34
2023-04-12T07:06:45.976Z,13.37
2023-04-12T07:09:17.124Z,13.42
2023-04-12T07:11:47.106Z,13.43
2023-04-12T07:14:17.144Z,13.43
2023-04-12T07:16:53.219Z,13.48
2023-04-12T07:22:13.578Z,13.67
2023-04-12T07:24:45.932Z,13.81
2023-04-12T07:27:15.600Z,13.90
2023-04-12T07:29:54.739Z,13.94
2023-04-12T07:32:33.716Z,14.02
2023-04-12T07:35:18.313Z,14.10
2023-04-12T07:37:48.577Z,14.08
2023-04-12T07:40:20.006Z,14.13
2023-04-12T07:42:49.286Z,14.22
2023-04-12T07:45:18.906Z,14.16
2023-04-12T07:47:48.196Z,14.09
2023-04-12T07:50:17.519Z,13.78
2023-04-12T07:52:46.956Z,14.06
2023-04-12T07:55:16.267Z,14.12
2023-04-12T07:57:48.114Z,14.23
2023-04-12T08:00:18.499Z,14.07
2023-04-12T08:02:47.792Z,14.19
2023-04-12T08:05:17.178Z,14.12
2023-04-12T08:07:51.543Z,14.26
2023-04-12T08:10:23.551Z,14.32
2023-04-12T08:12:54.859Z,14.33
2023-04-12T08:15:24.299Z,14.36
2023-04-12T08:17:53.969Z,14.31
2023-04-12T08:20:24.998Z,14.45
2023-04-12T08:22:54.678Z,14.46
2023-04-12T08:25:24.276Z,14.53
2023-04-12T08:30:40.178Z,14.42
2023-04-12T08:33:09.730Z,14.76
2023-04-12T08:35:39.691Z,14.72
2023-04-12T08:40:49.951Z,14.71
2023-04-12T08:43:22.751Z,14.71
2023-04-12T08:45:52.790Z,14.78
2023-04-12T08:48:25.389Z,14.73
2023-04-12T08:50:55.865Z,14.74
2023-04-12T08:53:25.254Z,14.91
2023-04-12T08:55:59.749Z,14.86
2023-04-12T08:58:33.364Z,15.01
2023-04-12T09:01:10.857Z,14.94
2023-04-12T09:03:41.566Z,14.73
2023-04-12T09:06:16.508Z,15.03
2023-04-12T09:08:56.133Z,15.13
2023-04-12T09:14:05.764Z,15.23
2023-04-12T09:16:46.097Z,15.18
2023-04-12T09:19:16.635Z,15.14
2023-04-12T09:22:02.681Z,15.16
2023-04-12T09:24:47.341Z,15.26
2023-04-12T09:27:17.393Z,15.25
2023-04-12T09:29:51.125Z,14.82
2023-04-12T09:32:30.797Z,15.26
2023-04-12T09:35:05.456Z,15.30
2023-04-12T09:37:35.221Z,15.24
2023-04-12T09:40:07.000Z,15.23
2023-04-12T09:42:37.563Z,15.14
2023-04-12T09:45:27.772Z,15.12
2023-04-12T09:48:07.230Z,15.15
2023-04-12T09:50:36.849Z,15.24
2023-04-12T09:53:17.330Z,15.28
2023-04-12T09:55:48.303Z,15.24
2023-04-12T09:58:22.182Z,15.24
2023-04-12T10:00:55.074Z,15.12
2023-04-12T10:03:24.950Z,15.02
2023-04-12T10:05:54.897Z,15.29
2023-04-12T10:08:30.634Z,15.31
2023-04-12T10:11:00.171Z,15.11
2023-04-12T10:13:36.343Z,15.03
2023-04-12T10:16:26.742Z,15.17
2023-04-12T10:21:36.761Z,15.18
2023-04-12T10:24:09.972Z,15.33
2023-04-12T10:26:43.908Z,15.40
2023-04-12T10:29:35.921Z,15.40
2023-04-12T10:32:20.372Z,15.49
2023-04-12T10:34:55.854Z,15.41
2023-04-12T10:38:02.710Z,15.44
2023-04-12T10:40:33.903Z,15.58
2023-04-12T10:43:29.156Z,15.66
2023-04-12T10:46:03.916Z,15.52
2023-04-12T10:48:35.674Z,15.46
2023-04-12T10:51:19.185Z,15.52
2023-04-12T10:53:49.264Z,15.40
2023-04-12T10:56:39.771Z,15.46
2023-04-12T10:59:11.697Z,15.57
2023-04-12T11:02:04.629Z,15.46
2023-04-12T11:04:44.861Z,15.50
2023-04-12T11:07:17.036Z,15.53
2023-04-12T11:09:59.636Z,15.60
2023-04-12T11:12:33.117Z,15.52
2023-04-12T11:15:05.797Z,15.60
2023-04-12T11:17:59.142Z,15.62
2023-04-12T11:20:29.326Z,15.75
2023-04-12T11:23:01.185Z,15.78
2023-04-12T11:25:31.271Z,15.77
2023-04-12T11:28:05.420Z,15.73
2023-04-12T11:30:51.417Z,15.69
2023-04-12T11:33:35.391Z,15.72
2023-04-12T11:36:13.066Z,15.68
2023-04-12T11:38:45.795Z,15.71
2023-04-12T11:41:18.133Z,15.86
2023-04-12T11:43:47.780Z,15.92
2023-04-12T11:46:18.749Z,15.97
2023-04-12T11:48:48.619Z,15.88
2023-04-12T11:51:21.581Z,15.88
2023-04-12T11:53:58.859Z,16.02
2023-04-12T11:56:31.496Z,16.00
2023-04-12T11:59:06.255Z,15.88
2023-04-12T12:01:38.112Z,15.76
2023-04-12T12:04:08.428Z,15.87
2023-04-12T12:06:38.503Z,15.94
2023-04-12T12:09:10.368Z,15.97
2023-04-12T12:11:39.843Z,15.96
2023-04-12T12:14:09.424Z,16.13
2023-04-12T12:16:46.174Z,16.05
2023-04-12T12:19:15.569Z,15.93
2023-04-12T12:21:44.941Z,16.03
2023-04-12T12:24:16.320Z,16.12
2023-04-12T12:26:46.610Z,16.15
2023-04-12T12:29:27.547Z,15.33
2023-04-12T12:32:04.423Z,16.05
2023-04-12T12:34:36.130Z,16.01
2023-04-12T12:37:05.177Z,16.15
2023-04-12T12:39:41.484Z,16.07
2023-04-12T12:42:14.225Z,16.03
2023-04-12T12:52:17.787Z,14.87
2023-04-12T12:54:47.413Z,15.84
2023-04-12T12:57:21.720Z,15.82
2023-04-12T13:00:05.582Z,15.92
2023-04-12T13:02:35.436Z,15.97
2023-04-12T13:05:08.072Z,15.88
2023-04-12T13:07:46.202Z,16.02
2023-04-12T13:10:15.757Z,15.97
2023-04-12T13:12:50.651Z,15.52
2023-04-12T13:15:23.588Z,16.03
2023-04-12T13:17:54.748Z,16.07
2023-04-12T13:20:25.095Z,16.10
2023-04-12T13:23:02.710Z,16.08
2023-04-12T13:25:37.268Z,16.00
2023-04-12T13:28:06.698Z,16.01
2023-04-12T13:30:36.071Z,16.06
2023-04-12T13:33:05.701Z,16.04
2023-04-12T13:35:39.946Z,16.04
2023-04-12T13:38:22.688Z,16.11
2023-04-12T13:40:51.990Z,16.05
2023-04-12T13:43:21.448Z,15.98
2023-04-12T13:45:50.850Z,16.01
2023-04-12T13:48:25.939Z,15.93
2023-04-12T13:53:42.366Z,16.01
2023-04-12T13:56:11.987Z,16.04
2023-04-12T13:58:41.675Z,15.92
2023-04-12T14:01:13.160Z,15.83
2023-04-12T14:03:53.576Z,15.81
2023-04-12T14:06:22.883Z,15.81
2023-04-12T14:08:57.414Z,15.79
2023-04-12T14:14:07.150Z,15.68
2023-04-12T14:16:36.498Z,15.86
2023-04-12T14:19:05.922Z,15.87
2023-04-12T14:21:35.165Z,15.87
2023-04-12T14:24:06.691Z,15.84
2023-04-12T14:26:36.245Z,15.72
2023-04-12T14:29:17.714Z,15.75
2023-04-12T14:31:47.349Z,15.67
2023-04-12T14:34:22.478Z,15.69
2023-04-12T14:36:52.198Z,15.61
2023-04-12T14:39:26.035Z,15.48
2023-04-12T14:41:56.641Z,15.34
2023-04-12T14:44:26.446Z,15.57
2023-04-12T14:47:03.232Z,15.56
2023-04-12T14:49:39.928Z,15.32
2023-04-12T14:54:47.347Z,14.89
2023-04-12T14:59:58.579Z,15.22
2023-04-12T15:02:36.474Z,15.41
2023-04-12T15:05:09.367Z,15.40
2023-04-12T15:07:44.438Z,15.26
2023-04-12T15:10:30.317Z,15.44
2023-04-12T15:13:00.166Z,15.00
2023-04-12T15:15:30.320Z,15.26
2023-04-12T15:18:11.225Z,15.34
2023-04-12T15:20:42.359Z,15.19
2023-04-12T15:23:12.126Z,14.89
2023-04-12T15:25:45.058Z,15.22
2023-04-12T15:28:14.942Z,14.78
2023-04-12T15:30:50.401Z,15.12
2023-04-12T15:36:22.656Z,15.06
2023-04-12T15:42:26.356Z,14.85
2023-04-12T15:47:53.662Z,14.58
2023-04-12T15:56:34.274Z,13.96
2023-04-12T15:59:21.054Z,14.13
2023-04-12T16:07:57.058Z,13.79
2023-04-12T16:10:44.172Z,13.70
2023-04-12T16:13:18.812Z,13.61
2023-04-12T16:15:58.755Z,13.31
2023-04-12T16:18:30.688Z,13.22
2023-04-12T16:21:00.258Z,13.33
2023-04-12T16:23:37.317Z,12.94
2023-04-12T16:26:07.809Z,13.23
2023-04-12T16:28:46.193Z,13.15
2023-04-12T16:31:25.002Z,13.07
2023-04-12T16:34:08.697Z,12.99
2023-04-12T16:36:47.514Z,12.92
2023-04-12T16:39:29.014Z,12.86
2023-04-12T16:42:07.268Z,12.81
2023-04-12T16:44:37.688Z,11.81
2023-04-12T16:47:24.937Z,12.70
2023-04-12T16:49:59.429Z,12.46
2023-04-12T16:52:28.972Z,12.16
2023-04-12T16:55:10.833Z,12.59
2023-04-12T16:57:41.295Z,12.58
2023-04-12T17:00:32.685Z,12.51
2023-04-12T17:06:08.192Z,11.66
2023-04-12T17:08:53.979Z,12.55
2023-04-12T17:11:34.726Z,12.08
2023-04-12T17:14:25.685Z,12.75
2023-04-12T17:17:06.815Z,11.93
2023-04-12T17:19:46.512Z,12.65
2023-04-12T17:22:40.100Z,12.64
2023-04-12T17:25:11.595Z,11.43
2023-04-12T17:27:44.028Z,12.61
2023-04-12T17:30:29.039Z,11.03
2023-04-12T17:33:12.140Z,12.42
2023-04-12T17:35:48.026Z,12.47
2023-04-12T17:38:23.016Z,12.12
2023-04-12T17:40:58.917Z,12.40
2023-04-12T17:43:43.757Z,12.29
2023-04-12T17:46:21.870Z,12.38
2023-04-12T17:49:03.685Z,12.31
2023-04-12T17:51:46.843Z,12.33
2023-04-12T17:54:34.618Z,12.36
2023-04-12T17:57:23.782Z,12.35
2023-04-12T18:00:09.517Z,12.31
2023-04-12T18:02:55.136Z,12.27
2023-04-12T18:05:29.833Z,11.91
2023-04-12T18:08:01.519Z,11.69
2023-04-12T18:10:35.700Z,12.32
2023-04-12T18:13:05.201Z,12.20
2023-04-12T18:15:34.765Z,12.02
2023-04-12T18:18:07.635Z,12.16
2023-04-12T18:20:37.033Z,12.04
2023-04-12T18:23:21.925Z,12.00
2023-04-12T18:26:04.246Z,12.04
2023-04-12T18:28:40.843Z,12.09
2023-04-12T18:31:11.079Z,11.99
2023-04-12T18:33:42.436Z,11.99
2023-04-12T18:36:12.598Z,11.94
2023-04-12T18:38:48.421Z,11.90
2023-04-12T18:41:17.971Z,11.57
2023-04-12T18:43:47.462Z,11.77
2023-04-12T18:46:18.591Z,11.82
2023-04-12T18:48:52.581Z,11.81
2023-04-12T18:51:23.132Z,11.83
2023-04-12T18:53:52.833Z,11.48
2023-04-12T18:56:33.485Z,11.60
2023-04-12T18:59:04.262Z,11.51
2023-04-12T19:01:36.720Z,11.37
2023-04-12T19:04:08.901Z,11.33
2023-04-12T19:06:38.663Z,11.17
2023-04-12T19:09:09.255Z,10.91
2023-04-12T19:11:38.743Z,11.28
2023-04-12T19:14:09.678Z,11.31
2023-04-12T19:16:39.513Z,11.09
2023-04-12T19:19:11.226Z,11.24
2023-04-12T19:21:40.738Z,11.11
2023-04-12T19:24:10.166Z,10.97
2023-04-12T19:26:57.870Z,11.24
2023-04-12T19:29:34.736Z,11.36
2023-04-12T19:32:17.128Z,11.37
2023-04-12T19:34:50.733Z,11.33
2023-04-12T19:37:26.256Z,11.40
2023-04-12T19:39:55.621Z,11.35
2023-04-12T19:42:24.994Z,11.35
2023-04-12T19:44:54.395Z,11.39
2023-04-12T19:47:24.089Z,11.48
2023-04-12T19:50:19.460Z,11.21
2023-04-12T19:52:52.124Z,11.24
2023-04-12T19:55:23.248Z,11.18
2023-04-12T19:57:52.874Z,11.34
2023-04-12T20:00:34.271Z,11.19
2023-04-12T20:03:03.787Z,11.25
2023-04-12T20:05:35.295Z,10.92
2023-04-12T20:08:05.074Z,10.82
2023-04-12T20:10:34.350Z,11.11
2023-04-12T20:13:06.643Z,11.01
2023-04-12T20:15:36.264Z,10.92
2023-04-12T20:18:07.230Z,11.11
2023-04-12T20:20:38.646Z,11.11
2023-04-12T20:23:08.762Z,11.16
2023-04-12T20:25:41.487Z,11.21
2023-04-12T20:28:11.898Z,11.22
2023-04-12T20:30:42.245Z,11.17
2023-04-12T20:33:17.166Z,11.07
2023-04-12T20:35:48.668Z,11.00
2023-04-12T20:38:23.159Z,10.88
2023-04-12T20:40:52.320Z,10.84
2023-04-12T20:43:21.611Z,10.76
2023-04-12T20:48:31.631Z,10.76
2023-04-12T20:51:03.221Z,10.65
2023-04-12T20:53:32.534Z,10.75
2023-04-12T20:56:02.102Z,10.82
2023-04-12T20:58:34.501Z,10.84
2023-04-12T21:01:05.657Z,10.80
2023-04-12T21:03:35.711Z,10.74
2023-04-12T21:06:08.882Z,10.69
2023-04-12T21:08:38.446Z,10.58
2023-04-12T21:11:08.792Z,10.45
2023-04-12T21:13:38.396Z,10.52
2023-04-12T21:16:09.439Z,10.54
2023-04-12T21:18:41.220Z,10.56
2023-04-12T21:21:18.734Z,10.57
2023-04-12T21:23:48.181Z,10.52
2023-04-12T21:26:17.692Z,10.40
2023-04-12T21:28:46.974Z,10.48
2023-04-12T21:31:16.373Z,10.44
2023-04-12T21:33:45.639Z,10.43
2023-04-12T21:36:17.622Z,10.51
2023-04-12T21:38:47.731Z,10.51
2023-04-12T21:41:17.380Z,10.41
2023-04-12T21:43:52.547Z,10.41
2023-04-12T21:46:26.714Z,10.36
2023-04-12T21:48:57.050Z,10.28
2023-04-12T21:51:28.614Z,10.31
2023-04-12T21:53:57.898Z,10.46
2023-04-12T21:56:29.442Z,10.38
2023-04-12T21:59:05.701Z,10.17
2023-04-12T22:01:36.975Z,10.09
2023-04-12T22:04:06.380Z,10.11
2023-04-12T22:06:37.826Z,10.15
2023-04-12T22:09:07.095Z,9.98
2023-04-12T22:11:41.307Z,10.10
2023-04-12T22:14:11.009Z,10.05
2023-04-12T22:16:40.384Z,9.99
2023-04-12T22:19:09.737Z,9.83
2023-04-12T22:21:41.949Z,9.86
2023-04-12T22:24:26.952Z,9.79
2023-04-12T22:27:02.788Z,9.59
2023-04-12T22:29:46.981Z,9.66
2023-04-12T22:32:41.251Z,9.40
2023-04-12T22:35:12.068Z,9.49
2023-04-12T22:37:49.908Z,9.51
2023-04-12T22:40:19.427Z,9.36
2023-04-12T22:43:04.035Z,9.43
2023-04-12T22:45:33.736Z,9.14
2023-04-12T22:48:02.912Z,9.25
2023-04-12T22:50:35.098Z,9.14
2023-04-12T22:55:48.664Z,8.96
2023-04-12T22:58:17.921Z,8.97
2023-04-12T23:00:50.298Z,9.02
2023-04-12T23:03:24.968Z,8.89
2023-04-12T23:05:54.916Z,9.00
2023-04-12T23:08:33.893Z,8.95
2023-04-12T23:11:04.439Z,8.97
2023-04-12T23:13:35.623Z,8.97
2023-04-12T23:16:29.187Z,8.64
2023-04-12T23:18:58.960Z,8.82
2023-04-12T23:21:28.272Z,8.74
2023-04-12T23:24:20.705Z,8.73
2023-04-12T23:26:49.995Z,8.59
2023-04-12T23:29:19.344Z,8.50
2023-04-12T23:31:49.038Z,8.56
2023-04-12T23:34:23.732Z,8.45
2023-04-12T23:36:54.798Z,8.42
2023-04-12T23:39:39.052Z,8.35
2023-04-12T23:42:08.545Z,8.31
2023-04-12T23:44:50.719Z,8.27
2023-04-12T23:47:21.500Z,8.24
2023-04-12T23:50:11.039Z,8.15
2023-04-12T23:52:40.779Z,8.11
2023-04-12T23:55:12.428Z,8.12
2023-04-12T23:57:46.858Z,8.03
